Terminal Aerodrome Forecast
Issued by NWS Central Illinois

Home | Current Version | Previous Version | Text Only | Print | Product List | Glossary On
Versions: 1 2 3 4 5 6 7 8 9 10 11 12 13 14 15 16 17 18 19 20 21 22 23 24 25 26 27 28 29 30
000
FTUS43 KILX 240813 AAA
TAFSPI
TAF AMD
KSPI 240813Z 2408/2506 17012KT P6SM BKN200
     FM241000 18012G22KT P6SM VCTS BKN070CB
     FM241500 21014G24KT P6SM BKN030
     FM242200 25017G27KT P6SM BKN030=

USA.gov is the U.S. government's official web portal to all federal, state and local government web resources and services.